sensor_id;sensor_type;location;lat;lon;timestamp;pressure;altitude;pressure_sealevel;temperature;humidity
32320;BME280;19080;51.750;5.888;2023-06-22T00:00:04;101671.88;;;20.06;100.00
32320;BME280;19080;51.750;5.888;2023-06-22T00:02:38;101595.94;;;19.67;100.00
32320;BME280;19080;51.750;5.888;2023-06-22T00:05:05;101679.06;;;20.07;100.00
32320;BME280;19080;51.750;5.888;2023-06-22T00:07:32;101669.22;;;20.04;100.00
32320;BME280;19080;51.750;5.888;2023-06-22T00:09:59;101662.06;;;20.00;100.00
32320;BME280;19080;51.750;5.888;2023-06-22T00:12:25;101624.56;;;19.77;100.00
32320;BME280;19080;51.750;5.888;2023-06-22T00:14:52;101654.13;;;19.87;100.00
32320;BME280;19080;51.750;5.888;2023-06-22T00:17:18;101667.50;;;19.94;100.00
32320;BME280;19080;51.750;5.888;2023-06-22T00:19:47;101605.84;;;19.64;100.00
32320;BME280;19080;51.750;5.888;2023-06-22T00:22:13;101644.25;;;19.84;100.00
32320;BME280;19080;51.750;5.888;2023-06-22T00:24:40;101662.22;;;19.85;100.00
32320;BME280;19080;51.750;5.888;2023-06-22T00:27:06;101670.28;;;19.87;100.00
32320;BME280;19080;51.750;5.888;2023-06-22T00:29:33;101663.16;;;19.79;100.00
32320;BME280;19080;51.750;5.888;2023-06-22T00:32:00;101592.66;;;19.30;100.00
32320;BME280;19080;51.750;5.888;2023-06-22T00:34:26;101645.41;;;19.57;100.00
32320;BME280;19080;51.750;5.888;2023-06-22T00:36:53;101667.81;;;19.64;100.00
32320;BME280;19080;51.750;5.888;2023-06-22T00:39:20;101673.22;;;19.62;100.00
32320;BME280;19080;51.750;5.888;2023-06-22T00:41:46;101662.53;;;19.52;100.00
32320;BME280;19080;51.750;5.888;2023-06-22T00:44:13;101664.31;;;19.46;100.00
32320;BME280;19080;51.750;5.888;2023-06-22T00:46:40;101650.03;;;19.38;100.00
32320;BME280;19080;51.750;5.888;2023-06-22T00:49:06;101632.16;;;19.31;100.00
32320;BME280;19080;51.750;5.888;2023-06-22T00:51:33;101624.13;;;19.24;100.00
32320;BME280;19080;51.750;5.888;2023-06-22T00:54:01;101658.97;;;19.43;100.00
32320;BME280;19080;51.750;5.888;2023-06-22T00:56:27;101567.84;;;18.98;100.00
32320;BME280;19080;51.750;5.888;2023-06-22T00:58:58;101650.84;;;19.49;100.00
32320;BME280;19080;51.750;5.888;2023-06-22T01:01:25;101661.53;;;19.63;100.00
32320;BME280;19080;51.750;5.888;2023-06-22T01:03:54;101656.19;;;19.59;100.00
32320;BME280;19080;51.750;5.888;2023-06-22T01:06:35;101582.91;;;19.17;100.00
32320;BME280;19080;51.750;5.888;2023-06-22T01:09:21;101657.97;;;19.60;100.00
32320;BME280;19080;51.750;5.888;2023-06-22T01:11:55;101587.41;;;19.15;100.00
32320;BME280;19080;51.750;5.888;2023-06-22T01:16:56;101639.22;;;19.44;100.00
32320;BME280;19080;51.750;5.888;2023-06-22T01:19:44;101649.97;;;19.44;100.00
32320;BME280;19080;51.750;5.888;2023-06-22T01:22:17;101635.69;;;19.36;100.00
32320;BME280;19080;51.750;5.888;2023-06-22T01:30:15;101550.91;;;18.85;100.00
32320;BME280;19080;51.750;5.888;2023-06-22T01:32:43;101641.09;;;19.35;100.00
32320;BME280;19080;51.750;5.888;2023-06-22T01:35:11;101644.69;;;19.35;100.00
32320;BME280;19080;51.750;5.888;2023-06-22T01:37:38;101566.13;;;18.91;100.00
32320;BME280;19080;51.750;5.888;2023-06-22T01:40:07;101641.06;;;19.38;100.00
32320;BME280;19080;51.750;5.888;2023-06-22T01:42:35;101638.44;;;19.32;100.00
32320;BME280;19080;51.750;5.888;2023-06-22T01:45:03;101645.56;;;19.37;100.00
32320;BME280;19080;51.750;5.888;2023-06-22T01:47:31;101632.16;;;19.30;100.00
32320;BME280;19080;51.750;5.888;2023-06-22T01:49:58;101556.28;;;18.85;100.00
32320;BME280;19080;51.750;5.888;2023-06-22T01:52:25;101641.13;;;19.30;100.00
32320;BME280;19080;51.750;5.888;2023-06-22T01:54:52;101567.00;;;18.91;100.00
32320;BME280;19080;51.750;5.888;2023-06-22T01:57:18;101649.16;;;19.36;100.00
32320;BME280;19080;51.750;5.888;2023-06-22T02:00:00;101564.34;;;18.88;100.00
32320;BME280;19080;51.750;5.888;2023-06-22T02:02:33;101635.81;;;19.23;100.00
32320;BME280;19080;51.750;5.888;2023-06-22T02:05:06;101642.97;;;19.25;100.00
32320;BME280;19080;51.750;5.888;2023-06-22T02:07:39;101624.13;;;19.24;100.00
32320;BME280;19080;51.750;5.888;2023-06-22T02:10:08;101634.00;;;19.23;100.00
32320;BME280;19080;51.750;5.888;2023-06-22T02:12:39;101562.53;;;18.89;100.00
32320;BME280;19080;51.750;5.888;2023-06-22T02:15:09;101618.94;;;19.05;100.00
32320;BME280;19080;51.750;5.888;2023-06-22T02:17:36;101619.81;;;19.06;100.00
32320;BME280;19080;51.750;5.888;2023-06-22T02:20:03;101570.63;;;18.87;100.00
32320;BME280;19080;51.750;5.888;2023-06-22T02:22:35;101623.28;;;19.17;100.00
32320;BME280;19080;51.750;5.888;2023-06-22T02:25:01;101610.78;;;19.10;100.00
32320;BME280;19080;51.750;5.888;2023-06-22T02:27:29;101600.94;;;19.09;100.00
32320;BME280;19080;51.750;5.888;2023-06-22T02:29:57;101617.91;;;19.17;100.00
32320;BME280;19080;51.750;5.888;2023-06-22T02:32:23;101596.44;;;19.08;100.00
32320;BME280;19080;51.750;5.888;2023-06-22T02:34:50;101537.53;;;18.77;100.00
32320;BME280;19080;51.750;5.888;2023-06-22T02:37:17;101617.84;;;19.26;100.00
32320;BME280;19080;51.750;5.888;2023-06-22T02:39:44;101599.97;;;19.16;100.00
32320;BME280;19080;51.750;5.888;2023-06-22T02:42:11;101586.53;;;19.13;100.00
32320;BME280;19080;51.750;5.888;2023-06-22T02:44:37;101474.00;;;18.55;100.00
32320;BME280;19080;51.750;5.888;2023-06-22T02:47:04;101605.28;;;19.25;100.00
32320;BME280;19080;51.750;5.888;2023-06-22T02:49:31;101599.88;;;19.28;100.00
32320;BME280;19080;51.750;5.888;2023-06-22T02:51:59;101588.22;;;19.25;100.00
32320;BME280;19080;51.750;5.888;2023-06-22T02:54:26;101609.69;;;19.34;100.00
32320;BME280;19080;51.750;5.888;2023-06-22T02:56:53;101615.97;;;19.36;100.00
32320;BME280;19080;51.750;5.888;2023-06-22T02:59:21;101517.75;;;18.84;100.00
32320;BME280;19080;51.750;5.888;2023-06-22T03:01:54;101515.97;;;18.80;100.00
32320;BME280;19080;51.750;5.888;2023-06-22T03:04:25;101609.72;;;19.31;100.00
32320;BME280;19080;51.750;5.888;2023-06-22T03:06:52;101604.31;;;19.32;100.00
32320;BME280;19080;51.750;5.888;2023-06-22T03:09:20;101589.13;;;19.25;100.00
32320;BME280;19080;51.750;5.888;2023-06-22T03:11:46;101573.06;;;19.14;100.00
32320;BME280;19080;51.750;5.888;2023-06-22T03:14:13;101594.47;;;19.31;100.00
32320;BME280;19080;51.750;5.888;2023-06-22T03:16:40;101599.00;;;19.25;100.00
32320;BME280;19080;51.750;5.888;2023-06-22T03:19:07;101590.88;;;19.31;100.00
32320;BME280;19080;51.750;5.888;2023-06-22T03:21:34;101588.19;;;19.31;100.00
32320;BME280;19080;51.750;5.888;2023-06-22T03:24:01;101514.97;;;18.94;100.00
32320;BME280;19080;51.750;5.888;2023-06-22T03:26:27;101530.06;;;19.07;100.00
32320;BME280;19080;51.750;5.888;2023-06-22T03:28:54;101562.22;;;19.25;100.00
32320;BME280;19080;51.750;5.888;2023-06-22T03:31:21;101573.81;;;19.33;100.00
32320;BME280;19080;51.750;5.888;2023-06-22T03:33:49;101533.66;;;19.09;100.00
32320;BME280;19080;51.750;5.888;2023-06-22T03:36:17;101571.16;;;19.27;100.00
32320;BME280;19080;51.750;5.888;2023-06-22T03:38:47;101585.50;;;19.29;100.00
32320;BME280;19080;51.750;5.888;2023-06-22T03:41:15;101575.66;;;19.25;100.00
32320;BME280;19080;51.750;5.888;2023-06-22T03:43:42;101560.50;;;19.15;100.00
32320;BME280;19080;51.750;5.888;2023-06-22T03:46:09;101560.56;;;19.09;100.00
32320;BME280;19080;51.750;5.888;2023-06-22T03:48:36;101569.56;;;19.06;100.00
32320;BME280;19080;51.750;5.888;2023-06-22T03:51:02;101505.31;;;18.68;100.00
32320;BME280;19080;51.750;5.888;2023-06-22T03:53:29;101565.13;;;19.02;100.00
32320;BME280;19080;51.750;5.888;2023-06-22T03:55:56;101571.31;;;19.09;100.00
32320;BME280;19080;51.750;5.888;2023-06-22T03:58:22;101481.16;;;18.62;100.00
32320;BME280;19080;51.750;5.888;2023-06-22T04:00:51;101562.44;;;19.04;100.00
32320;BME280;19080;51.750;5.888;2023-06-22T04:03:18;101567.81;;;19.02;100.00
32320;BME280;19080;51.750;5.888;2023-06-22T04:05:46;101565.13;;;19.04;100.00
32320;BME280;19080;51.750;5.888;2023-06-22T04:08:14;101566.03;;;19.00;100.00
32320;BME280;19080;51.750;5.888;2023-06-22T04:10:41;101576.69;;;19.10;100.00
32320;BME280;19080;51.750;5.888;2023-06-22T04:13:08;101579.34;;;19.13;100.00
32320;BME280;19080;51.750;5.888;2023-06-22T04:15:34;101535.66;;;18.89;100.00
32320;BME280;19080;51.750;5.888;2023-06-22T04:18:01;101552.56;;;19.03;100.00
32320;BME280;19080;51.750;5.888;2023-06-22T04:20:28;101582.88;;;19.23;100.00
32320;BME280;19080;51.750;5.888;2023-06-22T04:22:55;101563.16;;;19.18;100.00
32320;BME280;19080;51.750;5.888;2023-06-22T04:25:22;101541.66;;;19.15;100.00
32320;BME280;19080;51.750;5.888;2023-06-22T04:27:49;101559.44;;;19.33;100.00
32320;BME280;19080;51.750;5.888;2023-06-22T04:30:15;101579.97;;;19.44;100.00
32320;BME280;19080;51.750;5.888;2023-06-22T04:32:43;101571.84;;;19.52;100.00
32320;BME280;19080;51.750;5.888;2023-06-22T04:35:11;101553.94;;;19.45;100.00
32320;BME280;19080;51.750;5.888;2023-06-22T04:37:37;101561.06;;;19.50;100.00
32320;BME280;19080;51.750;5.888;2023-06-22T04:40:06;101567.28;;;19.62;100.00
32320;BME280;19080;51.750;5.888;2023-06-22T04:42:34;101553.84;;;19.59;100.00
32320;BME280;19080;51.750;5.888;2023-06-22T04:45:03;101549.31;;;19.61;100.00
32320;BME280;19080;51.750;5.888;2023-06-22T04:47:29;101540.31;;;19.65;100.00
32320;BME280;19080;51.750;5.888;2023-06-22T04:49:56;101556.34;;;19.77;100.00
32320;BME280;19080;51.750;5.888;2023-06-22T04:52:23;101555.41;;;19.79;100.00
32320;BME280;19080;51.750;5.888;2023-06-22T04:54:51;101483.94;;;19.45;100.00
32320;BME280;19080;51.750;5.888;2023-06-22T04:57:22;101564.22;;;19.94;100.00
32320;BME280;19080;51.750;5.888;2023-06-22T05:00:00;101508.84;;;19.67;100.00
32320;BME280;19080;51.750;5.888;2023-06-22T05:02:39;101565.91;;;20.04;100.00
32320;BME280;19080;51.750;5.888;2023-06-22T05:05:06;101568.53;;;20.08;100.00
32320;BME280;19080;51.750;5.888;2023-06-22T05:07:34;101525.63;;;19.90;100.00
32320;BME280;19080;51.750;5.888;2023-06-22T05:10:02;101534.47;;;20.03;100.00
32320;BME280;19080;51.750;5.888;2023-06-22T05:12:29;101575.44;;;20.31;100.00
32320;BME280;19080;51.750;5.888;2023-06-22T05:14:57;101561.97;;;20.29;100.00
32320;BME280;19080;51.750;5.888;2023-06-22T05:17:24;101566.31;;;20.44;100.00
32320;BME280;19080;51.750;5.888;2023-06-22T05:19:51;101577.84;;;20.55;100.00
32320;BME280;19080;51.750;5.888;2023-06-22T05:22:18;101551.91;;;20.45;100.00
32320;BME280;19080;51.750;5.888;2023-06-22T05:24:45;101543.56;;;20.62;100.00
32320;BME280;19080;51.750;5.888;2023-06-22T05:27:12;101530.19;;;20.54;100.00
32320;BME280;19080;51.750;5.888;2023-06-22T05:29:39;101534.38;;;20.75;100.00
32320;BME280;19080;51.750;5.888;2023-06-22T05:32:06;101520.84;;;20.76;100.00
32320;BME280;19080;51.750;5.888;2023-06-22T05:34:33;101556.28;;;21.09;100.00
32320;BME280;19080;51.750;5.888;2023-06-22T05:36:59;101476.53;;;20.88;100.00
32320;BME280;19080;51.750;5.888;2023-06-22T05:39:26;101535.66;;;21.56;100.00
32320;BME280;19080;51.750;5.888;2023-06-22T05:41:53;101567.19;;;22.03;100.00
32320;BME280;19080;51.750;5.888;2023-06-22T05:44:19;101517.63;;;22.01;100.00
32320;BME280;19080;51.750;5.888;2023-06-22T05:46:46;101603.34;;;22.81;100.00
32320;BME280;19080;51.750;5.888;2023-06-22T05:49:15;101600.69;;;23.16;100.00
32320;BME280;19080;51.750;5.888;2023-06-22T05:51:42;101566.16;;;23.24;100.00
32320;BME280;19080;51.750;5.888;2023-06-22T05:54:09;101587.53;;;23.36;100.00
32320;BME280;19080;51.750;5.888;2023-06-22T05:56:36;101586.88;;;23.27;100.00
32320;BME280;19080;51.750;5.888;2023-06-22T05:59:04;101515.38;;;22.98;100.00
32320;BME280;19080;51.750;5.888;2023-06-22T06:01:30;101576.13;;;23.24;100.00
32320;BME280;19080;51.750;5.888;2023-06-22T06:04:02;101537.69;;;23.08;100.00
32320;BME280;19080;51.750;5.888;2023-06-22T06:06:30;101568.75;;;23.29;100.00
32320;BME280;19080;51.750;5.888;2023-06-22T06:08:57;101562.31;;;23.34;100.00
32320;BME280;19080;51.750;5.888;2023-06-22T06:11:25;101592.50;;;23.55;100.00
32320;BME280;19080;51.750;5.888;2023-06-22T06:13:52;101457.53;;;22.65;100.00
32320;BME280;19080;51.750;5.888;2023-06-22T06:16:19;101570.19;;;23.44;100.00
32320;BME280;19080;51.750;5.888;2023-06-22T06:18:45;101590.66;;;23.57;100.00
32320;BME280;19080;51.750;5.888;2023-06-22T06:21:12;101553.84;;;23.47;100.00
32320;BME280;19080;51.750;5.888;2023-06-22T06:23:38;101554.59;;;23.52;100.00
32320;BME280;19080;51.750;5.888;2023-06-22T06:26:05;101573.13;;;23.70;100.00
32320;BME280;19080;51.750;5.888;2023-06-22T06:28:34;101538.63;;;23.75;100.00
32320;BME280;19080;51.750;5.888;2023-06-22T06:31:01;101579.38;;;24.05;100.00
32320;BME280;19080;51.750;5.888;2023-06-22T06:33:27;101580.13;;;24.10;100.00
32320;BME280;19080;51.750;5.888;2023-06-22T06:35:54;101575.50;;;24.13;100.00
32320;BME280;19080;51.750;5.888;2023-06-22T06:38:22;101551.41;;;24.02;100.00
32320;BME280;19080;51.750;5.888;2023-06-22T06:40:49;101526.16;;;24.00;100.00
32320;BME280;19080;51.750;5.888;2023-06-22T06:43:16;101510.81;;;23.99;100.00
32320;BME280;19080;51.750;5.888;2023-06-22T06:45:42;101551.44;;;24.32;100.00
32320;BME280;19080;51.750;5.888;2023-06-22T06:48:09;101567.69;;;24.61;100.00
32320;BME280;19080;51.750;5.888;2023-06-22T06:50:36;101571.16;;;24.66;100.00
32320;BME280;19080;51.750;5.888;2023-06-22T06:53:03;101542.63;;;24.53;100.00
32320;BME280;19080;51.750;5.888;2023-06-22T06:55:29;101556.94;;;24.58;100.00
32320;BME280;19080;51.750;5.888;2023-06-22T06:57:59;101546.03;;;24.60;100.00
32320;BME280;19080;51.750;5.888;2023-06-22T07:00:26;101565.63;;;24.70;100.00
32320;BME280;19080;51.750;5.888;2023-06-22T07:02:53;101563.66;;;24.75;100.00
32320;BME280;19080;51.750;5.888;2023-06-22T07:05:20;101546.22;;;24.82;100.00
32320;BME280;19080;51.750;5.888;2023-06-22T07:07:47;101559.91;;;25.07;100.00
32320;BME280;19080;51.750;5.888;2023-06-22T07:10:13;101554.44;;;25.08;100.00
32320;BME280;19080;51.750;5.888;2023-06-22T07:12:41;101560.28;;;25.22;100.00
32320;BME280;19080;51.750;5.888;2023-06-22T07:15:09;101492.75;;;24.84;100.00
32320;BME280;19080;51.750;5.888;2023-06-22T07:17:36;101530.09;;;25.05;100.00
32320;BME280;19080;51.750;5.888;2023-06-22T07:20:04;101494.03;;;25.00;100.00
32320;BME280;19080;51.750;5.888;2023-06-22T07:22:51;101509.09;;;25.10;100.00
32320;BME280;19080;51.750;5.888;2023-06-22T07:25:19;101542.22;;;25.21;100.00
32320;BME280;19080;51.750;5.888;2023-06-22T07:27:56;101497.13;;;24.88;100.00
32320;BME280;19080;51.750;5.888;2023-06-22T07:30:24;101506.91;;;24.93;100.00
32320;BME280;19080;51.750;5.888;2023-06-22T07:32:50;101526.63;;;25.00;100.00
32320;BME280;19080;51.750;5.888;2023-06-22T07:35:17;101531.31;;;24.95;100.00
32320;BME280;19080;51.750;5.888;2023-06-22T07:37:44;101512.69;;;24.83;100.00
32320;BME280;19080;51.750;5.888;2023-06-22T07:40:11;101468.97;;;24.64;100.00
32320;BME280;19080;51.750;5.888;2023-06-22T07:42:38;101505.50;;;24.82;100.00
32320;BME280;19080;51.750;5.888;2023-06-22T07:45:07;101509.16;;;24.81;100.00
32320;BME280;19080;51.750;5.888;2023-06-22T07:47:37;101512.66;;;24.84;100.00
32320;BME280;19080;51.750;5.888;2023-06-22T07:50:04;101531.28;;;24.96;100.00
32320;BME280;19080;51.750;5.888;2023-06-22T07:52:32;101511.06;;;24.77;100.00
32320;BME280;19080;51.750;5.888;2023-06-22T07:54:58;101528.78;;;24.89;100.00
32320;BME280;19080;51.750;5.888;2023-06-22T07:57:25;101511.56;;;24.90;100.00
32320;BME280;19080;51.750;5.888;2023-06-22T08:00:00;101531.81;;;25.08;100.00
32320;BME280;19080;51.750;5.888;2023-06-22T08:02:38;101496.19;;;24.89;100.00
32320;BME280;19080;51.750;5.888;2023-06-22T08:05:05;101500.94;;;25.10;100.00
32320;BME280;19080;51.750;5.888;2023-06-22T08:07:49;101509.56;;;25.48;100.00
32320;BME280;19080;51.750;5.888;2023-06-22T08:10:16;101492.75;;;25.86;100.00
32320;BME280;19080;51.750;5.888;2023-06-22T08:12:43;101475.63;;;26.30;100.00
32320;BME280;19080;51.750;5.888;2023-06-22T08:15:10;101485.03;;;26.88;100.00
32320;BME280;19080;51.750;5.888;2023-06-22T08:17:40;101489.34;;;27.56;100.00
32320;BME280;19080;51.750;5.888;2023-06-22T08:20:08;101478.75;;;28.08;92.56
32320;BME280;19080;51.750;5.888;2023-06-22T08:22:42;101474.13;;;28.47;88.34
32320;BME280;19080;51.750;5.888;2023-06-22T08:25:09;101402.53;;;28.41;82.97
32320;BME280;19080;51.750;5.888;2023-06-22T08:27:37;101475.59;;;28.91;79.05
32320;BME280;19080;51.750;5.888;2023-06-22T08:30:04;101419.25;;;28.52;78.05
32320;BME280;19080;51.750;5.888;2023-06-22T08:32:31;101466.22;;;28.77;75.90
32320;BME280;19080;51.750;5.888;2023-06-22T08:34:59;101478.31;;;28.36;79.36
32320;BME280;19080;51.750;5.888;2023-06-22T08:37:27;101470.53;;;28.08;81.44
32320;BME280;19080;51.750;5.888;2023-06-22T08:39:59;101452.53;;;27.85;82.88
32320;BME280;19080;51.750;5.888;2023-06-22T08:42:26;101467.59;;;27.94;84.10
32320;BME280;19080;51.750;5.888;2023-06-22T08:44:53;101461.53;;;28.06;82.19
32320;BME280;19080;51.750;5.888;2023-06-22T08:47:20;101406.50;;;27.77;82.77
32320;BME280;19080;51.750;5.888;2023-06-22T08:49:48;101460.22;;;27.96;82.31
32320;BME280;19080;51.750;5.888;2023-06-22T08:52:15;101431.94;;;27.78;85.78
32320;BME280;19080;51.750;5.888;2023-06-22T08:54:41;101426.34;;;28.00;81.25
32320;BME280;19080;51.750;5.888;2023-06-22T08:57:08;101460.16;;;28.16;80.42
32320;BME280;19080;51.750;5.888;2023-06-22T08:59:35;101441.34;;;28.10;79.09
32320;BME280;19080;51.750;5.888;2023-06-22T09:02:01;101401.94;;;27.97;78.19
32320;BME280;19080;51.750;5.888;2023-06-22T09:04:28;101425.53;;;27.98;79.16
32320;BME280;19080;51.750;5.888;2023-06-22T09:06:55;101436.38;;;28.18;79.34
32320;BME280;19080;51.750;5.888;2023-06-22T09:09:21;101435.53;;;28.36;77.55
32320;BME280;19080;51.750;5.888;2023-06-22T09:11:48;101434.38;;;28.59;75.40
32320;BME280;19080;51.750;5.888;2023-06-22T09:14:15;101418.81;;;28.42;74.81
32320;BME280;19080;51.750;5.888;2023-06-22T09:16:42;101415.00;;;28.09;76.42
32320;BME280;19080;51.750;5.888;2023-06-22T09:19:08;101429.53;;;27.91;75.90
32320;BME280;19080;51.750;5.888;2023-06-22T09:21:36;101426.00;;;27.70;79.39
32320;BME280;19080;51.750;5.888;2023-06-22T09:24:03;101434.41;;;27.65;82.95
32320;BME280;19080;51.750;5.888;2023-06-22T09:26:29;101278.13;;;26.65;84.93
32320;BME280;19080;51.750;5.888;2023-06-22T09:28:56;101405.03;;;27.31;85.77
32320;BME280;19080;51.750;5.888;2023-06-22T09:31:24;101415.72;;;27.36;87.94
32320;BME280;19080;51.750;5.888;2023-06-22T09:33:54;101255.25;;;26.48;86.78
32320;BME280;19080;51.750;5.888;2023-06-22T09:36:21;101425.94;;;27.31;86.18
32320;BME280;19080;51.750;5.888;2023-06-22T09:38:48;101416.84;;;27.11;86.02
32320;BME280;19080;51.750;5.888;2023-06-22T09:41:15;101427.13;;;27.05;85.28
32320;BME280;19080;51.750;5.888;2023-06-22T09:43:42;101419.50;;;26.91;85.66
32320;BME280;19080;51.750;5.888;2023-06-22T09:46:10;101416.56;;;26.75;87.59
32320;BME280;19080;51.750;5.888;2023-06-22T09:48:36;101427.91;;;26.65;86.77
32320;BME280;19080;51.750;5.888;2023-06-22T09:51:06;101423.75;;;26.56;87.75
32320;BME280;19080;51.750;5.888;2023-06-22T09:53:33;101428.94;;;26.40;90.54
32320;BME280;19080;51.750;5.888;2023-06-22T09:56:01;101404.28;;;26.21;92.60
32320;BME280;19080;51.750;5.888;2023-06-22T09:58:28;101415.84;;;26.26;93.79
32320;BME280;19080;51.750;5.888;2023-06-22T10:00:55;101421.66;;;26.17;93.42
32320;BME280;19080;51.750;5.888;2023-06-22T10:03:21;101425.41;;;26.15;95.83
32320;BME280;19080;51.750;5.888;2023-06-22T10:05:49;101359.13;;;25.72;96.78
32320;BME280;19080;51.750;5.888;2023-06-22T10:08:16;101399.16;;;25.92;96.26
32320;BME280;19080;51.750;5.888;2023-06-22T10:10:42;101350.59;;;25.58;99.34
32320;BME280;19080;51.750;5.888;2023-06-22T10:13:10;101349.78;;;25.56;97.83
32320;BME280;19080;51.750;5.888;2023-06-22T10:15:38;101409.63;;;25.79;100.00
32320;BME280;19080;51.750;5.888;2023-06-22T10:18:04;101412.91;;;25.64;100.00
32320;BME280;19080;51.750;5.888;2023-06-22T10:20:31;101434.06;;;25.56;100.00
32320;BME280;19080;51.750;5.888;2023-06-22T10:22:58;101429.28;;;25.38;100.00
32320;BME280;19080;51.750;5.888;2023-06-22T10:25:26;101428.75;;;25.28;100.00
32320;BME280;19080;51.750;5.888;2023-06-22T10:27:53;101431.75;;;25.20;100.00
32320;BME280;19080;51.750;5.888;2023-06-22T10:30:20;101428.25;;;25.17;100.00
32320;BME280;19080;51.750;5.888;2023-06-22T10:32:46;101392.69;;;24.98;100.00
32320;BME280;19080;51.750;5.888;2023-06-22T10:35:13;101407.22;;;24.97;100.00
32320;BME280;19080;51.750;5.888;2023-06-22T10:37:43;101402.03;;;24.89;100.00
32320;BME280;19080;51.750;5.888;2023-06-22T10:40:15;101268.19;;;24.10;100.00
32320;BME280;19080;51.750;5.888;2023-06-22T10:42:42;101398.91;;;24.75;100.00
32320;BME280;19080;51.750;5.888;2023-06-22T10:45:09;101392.75;;;24.70;100.00
32320;BME280;19080;51.750;5.888;2023-06-22T10:47:37;101384.88;;;24.62;100.00
32320;BME280;19080;51.750;5.888;2023-06-22T10:50:04;101387.69;;;24.59;100.00
32320;BME280;19080;51.750;5.888;2023-06-22T10:52:31;101374.31;;;24.53;100.00
32320;BME280;19080;51.750;5.888;2023-06-22T10:54:57;101307.78;;;24.15;100.00
32320;BME280;19080;51.750;5.888;2023-06-22T10:57:24;101386.66;;;24.63;100.00
32320;BME280;19080;51.750;5.888;2023-06-22T10:59:51;101390.19;;;24.65;100.00
32320;BME280;19080;51.750;5.888;2023-06-22T11:02:17;101384.09;;;24.59;100.00
32320;BME280;19080;51.750;5.888;2023-06-22T11:04:44;101392.50;;;24.51;100.00
32320;BME280;19080;51.750;5.888;2023-06-22T11:07:12;101387.91;;;24.53;100.00
32320;BME280;19080;51.750;5.888;2023-06-22T11:09:39;101383.81;;;24.40;100.00
32320;BME280;19080;51.750;5.888;2023-06-22T11:12:07;101360.13;;;24.19;100.00
32320;BME280;19080;51.750;5.888;2023-06-22T11:14:34;101408.53;;;24.31;100.00
32320;BME280;19080;51.750;5.888;2023-06-22T11:17:01;101425.81;;;24.28;100.00
32320;BME280;19080;51.750;5.888;2023-06-22T11:19:27;101430.88;;;24.11;100.00
32320;BME280;19080;51.750;5.888;2023-06-22T11:21:54;101375.13;;;23.73;100.00
32320;BME280;19080;51.750;5.888;2023-06-22T11:24:21;101368.88;;;23.71;100.00
32320;BME280;19080;51.750;5.888;2023-06-22T11:26:47;101453.47;;;24.12;100.00
32320;BME280;19080;51.750;5.888;2023-06-22T11:29:14;101442.41;;;23.90;100.00
32320;BME280;19080;51.750;5.888;2023-06-22T11:31:57;101447.00;;;23.57;100.00
32320;BME280;19080;51.750;5.888;2023-06-22T11:34:24;101446.72;;;23.33;100.00
32320;BME280;19080;51.750;5.888;2023-06-22T11:36:51;101433.94;;;23.06;100.00
32320;BME280;19080;51.750;5.888;2023-06-22T11:39:17;101442.22;;;23.00;100.00
32320;BME280;19080;51.750;5.888;2023-06-22T11:41:55;101429.06;;;22.86;100.00
32320;BME280;19080;51.750;5.888;2023-06-22T11:44:21;101383.06;;;22.51;100.00
32320;BME280;19080;51.750;5.888;2023-06-22T11:46:48;101442.13;;;22.67;100.00
32320;BME280;19080;51.750;5.888;2023-06-22T11:49:15;101433.63;;;22.49;100.00
32320;BME280;19080;51.750;5.888;2023-06-22T11:51:41;101412.75;;;22.17;100.00
32320;BME280;19080;51.750;5.888;2023-06-22T11:54:08;101439.00;;;22.12;100.00
32320;BME280;19080;51.750;5.888;2023-06-22T11:56:34;101416.19;;;21.83;100.00
32320;BME280;19080;51.750;5.888;2023-06-22T11:59:01;101445.78;;;21.89;100.00
32320;BME280;19080;51.750;5.888;2023-06-22T12:01:28;101440.78;;;21.71;100.00
32320;BME280;19080;51.750;5.888;2023-06-22T12:03:54;101467.78;;;21.72;100.00
32320;BME280;19080;51.750;5.888;2023-06-22T12:06:21;101379.75;;;21.16;100.00
32320;BME280;19080;51.750;5.888;2023-06-22T12:08:48;101455.72;;;21.46;100.00
32320;BME280;19080;51.750;5.888;2023-06-22T12:11:14;101440.56;;;21.38;100.00
32320;BME280;19080;51.750;5.888;2023-06-22T12:13:41;101431.47;;;21.42;100.00
32320;BME280;19080;51.750;5.888;2023-06-22T12:16:08;101420.69;;;21.41;100.00
32320;BME280;19080;51.750;5.888;2023-06-22T12:18:34;101394.06;;;21.21;100.00
32320;BME280;19080;51.750;5.888;2023-06-22T12:21:01;101392.34;;;21.17;100.00
32320;BME280;19080;51.750;5.888;2023-06-22T12:23:27;101290.81;;;20.65;100.00
32320;BME280;19080;51.750;5.888;2023-06-22T12:25:54;101353.97;;;21.00;100.00
32320;BME280;19080;51.750;5.888;2023-06-22T12:28:21;101242.69;;;20.44;100.00
32320;BME280;19080;51.750;5.888;2023-06-22T12:30:49;101350.28;;;21.05;100.00
32320;BME280;19080;51.750;5.888;2023-06-22T12:33:16;101371.69;;;21.15;100.00
32320;BME280;19080;51.750;5.888;2023-06-22T12:35:43;101368.78;;;21.27;100.00
32320;BME280;19080;51.750;5.888;2023-06-22T12:38:11;101347.03;;;21.33;100.00
32320;BME280;19080;51.750;5.888;2023-06-22T12:40:38;101339.38;;;21.55;100.00
32320;BME280;19080;51.750;5.888;2023-06-22T12:43:04;101350.72;;;21.70;100.00
32320;BME280;19080;51.750;5.888;2023-06-22T12:45:31;101360.44;;;21.79;100.00
32320;BME280;19080;51.750;5.888;2023-06-22T12:48:00;101359.50;;;21.80;100.00
32320;BME280;19080;51.750;5.888;2023-06-22T12:50:27;101342.72;;;21.66;100.00